Time;durP1;ratioP1;P1;durP2;ratioP2;P2;SDS_P1;SDS_P2;PMS_P1;PMS_P2;Temp;Humidity;BMP_temperature;BMP_pressure;BME280_temperature;BME280_humidity;BME280_pressure;Samples;Min_cycle;Max_cycle;Signal;HPM_P1;HPM_P2
2021/01/24 05:46:33;;;;;;;7.00;3.17;;;;;;;;;;6174448;22;883546;-82
2021/01/24 05:48:59;;;;;;;4.93;2.83;;;;;;;;;;6289597;22;20345;-82
2021/01/24 05:51:25;;;;;;;11.13;3.35;;;;;;;;;;6286271;22;20007;-82
2021/01/24 05:53:51;;;;;;;7.88;3.22;;;;;;;;;;6287585;22;20010;-84
2021/01/24 05:56:18;;;;;;;8.10;3.10;;;;;;;;;;6286476;22;20434;-81
2021/01/24 06:40:28;;;;;;;10.15;4.40;;;;;;;;;;6169414;23;20024;-81
2021/01/24 06:43:40;;;;;;;15.77;4.97;;;;;;;;;;6116749;23;20009;-81
2021/01/24 06:49:55;;;;;;;9.15;3.70;;;;;;;;;;6162214;23;20092;-81
2021/01/24 07:31:05;;;;;;;10.45;4.78;;;;;;;;;;6298687;22;20099;-82
2021/01/24 07:34:10;;;;;;;12.20;5.03;;;;;;;;;;6194874;23;20412;-82
2021/01/24 09:19:32;;;;;;;9.63;4.13;;;;;;;;;;6290133;22;811462;-81
2021/01/24 09:21:57;;;;;;;7.35;3.90;;;;;;;;;;6298772;22;20014;-82
2021/01/24 09:24:23;;;;;;;8.50;5.13;;;;;;;;;;6299986;22;20009;-82
2021/01/24 09:26:49;;;;;;;8.18;4.10;;;;;;;;;;6300564;22;20003;-82
2021/01/24 09:29:15;;;;;;;6.50;3.10;;;;;;;;;;6299848;22;20010;-82
2021/01/24 09:33:59;;;;;;;6.60;4.05;;;;;;;;;;5125566;27;20363;-83
2021/01/24 09:36:24;;;;;;;7.93;4.22;;;;;;;;;;5109824;28;20031;-83
2021/01/24 09:38:50;;;;;;;7.55;3.58;;;;;;;;;;5093404;27;20039;-83
2021/01/24 09:41:19;;;;;;;11.40;4.88;;;;;;;;;;5098937;28;20020;-83
2021/01/24 09:43:44;;;;;;;8.93;4.47;;;;;;;;;;5093578;28;20016;-84
2021/01/24 09:46:11;;;;;;;11.45;4.63;;;;;;;;;;5088888;28;20020;-83
2021/01/24 09:48:36;;;;;;;10.32;4.93;;;;;;;;;;5083724;28;20454;-83
2021/01/24 09:51:02;;;;;;;8.93;3.55;;;;;;;;;;5085277;28;20035;-83
2021/01/24 09:53:28;;;;;;;15.57;7.25;;;;;;;;;;5091441;28;20017;-84
2021/01/24 09:55:54;;;;;;;8.30;4.50;;;;;;;;;;5089751;28;20028;-84
2021/01/24 09:58:20;;;;;;;9.18;3.85;;;;;;;;;;5111461;28;20038;-84
2021/01/24 10:00:45;;;;;;;9.57;3.92;;;;;;;;;;5108706;28;20016;-83
2021/01/24 10:03:11;;;;;;;12.38;6.90;;;;;;;;;;5084307;28;20104;-83
2021/01/24 10:05:36;;;;;;;30.35;17.17;;;;;;;;;;5091138;28;20030;-82
2021/01/24 10:08:02;;;;;;;22.23;11.88;;;;;;;;;;5088288;28;20023;-82
2021/01/24 10:10:28;;;;;;;11.40;7.13;;;;;;;;;;5090726;28;20024;-83
2021/01/24 10:12:54;;;;;;;7.22;4.82;;;;;;;;;;5086857;28;20032;-84
2021/01/24 10:15:19;;;;;;;7.50;3.58;;;;;;;;;;5088231;28;20379;-83
2021/01/24 10:17:45;;;;;;;8.77;3.72;;;;;;;;;;5086567;28;20493;-83
2021/01/24 10:20:11;;;;;;;6.60;3.30;;;;;;;;;;5089367;28;20023;-84
2021/01/24 10:22:37;;;;;;;5.43;3.22;;;;;;;;;;5091219;28;20035;-83
2021/01/24 10:25:02;;;;;;;12.93;5.38;;;;;;;;;;5092661;28;20024;-83
2021/01/24 10:27:28;;;;;;;13.98;6.68;;;;;;;;;;5087403;28;20096;-84
2021/01/24 10:29:54;;;;;;;5.38;3.50;;;;;;;;;;5087941;28;20016;-83
2021/01/24 10:32:19;;;;;;;5.35;2.88;;;;;;;;;;5082129;28;20077;-83
2021/01/24 10:34:48;;;;;;;5.07;2.75;;;;;;;;;;5089979;28;20020;-83
2021/01/24 10:37:14;;;;;;;9.32;3.80;;;;;;;;;;5087055;28;20020;-84
2021/01/24 10:42:05;;;;;;;4.85;3.03;;;;;;;;;;5069913;27;1093787;-83
2021/01/24 10:44:40;;;;;;;7.15;3.33;;;;;;;;;;5081325;28;20029;-83
2021/01/24 10:47:18;;;;;;;13.77;3.55;;;;;;;;;;5051088;28;20030;-83
2021/01/24 10:56:15;;;;;;;6.10;3.28;;;;;;;;;;5042371;28;20442;-83
2021/01/24 10:59:06;;;;;;;10.70;4.05;;;;;;;;;;5074963;28;20024;-83
2021/01/24 11:05:16;;;;;;;4.97;3.22;;;;;;;;;;5011871;28;20018;-86
2021/01/24 11:08:18;;;;;;;5.65;2.90;;;;;;;;;;5019049;28;20487;-85
2021/01/24 11:13:28;;;;;;;6.25;3.20;;;;;;;;;;5090255;28;19923;-85
2021/01/24 11:15:57;;;;;;;7.63;3.38;;;;;;;;;;5073428;28;20024;-85
2021/01/24 11:18:23;;;;;;;5.70;3.00;;;;;;;;;;5071656;28;20063;-86
2021/01/24 11:20:54;;;;;;;5.72;3.10;;;;;;;;;;5082635;28;20100;-85
2021/01/24 11:23:23;;;;;;;;;;;;;;;;;;5055296;28;20396;-86
2021/01/24 11:26:00;;;;;;;6.95;3.63;;;;;;;;;;5057958;28;20501;-85
2021/01/24 11:28:46;;;;;;;5.03;2.50;;;;;;;;;;5058522;28;20016;-85
2021/01/24 11:31:11;;;;;;;7.68;3.10;;;;;;;;;;5062140;28;20052;-84
2021/01/24 11:33:37;;;;;;;9.70;4.75;;;;;;;;;;5071390;28;20029;-85
2021/01/24 11:36:06;;;;;;;6.18;3.55;;;;;;;;;;5044751;28;20028;-85
2021/01/24 11:38:32;;;;;;;5.97;3.20;;;;;;;;;;5059086;28;20025;-85
2021/01/24 11:40:57;;;;;;;9.20;2.72;;;;;;;;;;5063205;28;20043;-85
2021/01/24 11:43:25;;;;;;;5.32;2.20;;;;;;;;;;5044942;28;20029;-85
2021/01/24 11:45:51;;;;;;;10.13;4.32;;;;;;;;;;5069494;28;20025;-85
2021/01/24 11:48:16;;;;;;;6.97;3.08;;;;;;;;;;5043956;28;20075;-85
2021/01/24 11:50:42;;;;;;;7.28;4.25;;;;;;;;;;5061404;28;20112;-85
2021/01/24 11:53:11;;;;;;;6.63;3.20;;;;;;;;;;5029823;28;20116;-84
2021/01/24 11:57:57;;;;;;;5.68;3.30;;;;;;;;;;5151017;27;20437;-84
2021/01/24 12:00:23;;;;;;;6.30;3.00;;;;;;;;;;5139180;27;20372;-84
2021/01/24 12:02:48;;;;;;;6.85;3.30;;;;;;;;;;5142706;27;20026;-84
2021/01/24 12:05:14;;;;;;;6.65;3.40;;;;;;;;;;5137338;27;20021;-84
2021/01/24 12:07:40;;;;;;;5.70;2.97;;;;;;;;;;5140023;27;20027;-83
2021/01/24 12:10:06;;;;;;;7.05;3.65;;;;;;;;;;5133442;27;20508;-83
2021/01/24 12:12:31;;;;;;;12.82;6.90;;;;;;;;;;5135813;27;20038;-83
2021/01/24 12:14:57;;;;;;;6.07;3.38;;;;;;;;;;5139492;27;20023;-82
2021/01/24 12:17:26;;;;;;;5.93;2.90;;;;;;;;;;5142257;27;20023;-83
2021/01/24 12:19:52;;;;;;;6.47;3.75;;;;;;;;;;5138615;27;20027;-83
2021/01/24 12:22:18;;;;;;;7.00;3.10;;;;;;;;;;5139087;27;20014;-83
2021/01/24 12:27:04;;;;;;;5.20;3.20;;;;;;;;;;5121357;27;20429;-84
2021/01/24 12:29:30;;;;;;;8.65;3.17;;;;;;;;;;5095156;28;20460;-83
2021/01/24 12:31:56;;;;;;;5.63;3.05;;;;;;;;;;5090637;28;20388;-83
2021/01/24 12:34:21;;;;;;;9.18;4.10;;;;;;;;;;5089292;28;20020;-83
2021/01/24 12:36:50;;;;;;;10.15;3.70;;;;;;;;;;5093870;28;20021;-83
2021/01/24 12:39:16;;;;;;;7.10;3.55;;;;;;;;;;5092863;28;20369;-83
2021/01/24 12:41:41;;;;;;;7.15;2.90;;;;;;;;;;5087685;28;20096;-83
2021/01/24 12:44:10;;;;;;;5.68;2.38;;;;;;;;;;5091613;28;20017;-83
2021/01/24 12:46:36;;;;;;;10.60;4.35;;;;;;;;;;5092491;28;20044;-83
2021/01/24 12:49:03;;;;;;;6.18;3.20;;;;;;;;;;5092874;28;20044;-83
2021/01/24 12:51:29;;;;;;;7.22;3.20;;;;;;;;;;5088849;28;20096;-83
2021/01/24 12:53:55;;;;;;;8.48;5.05;;;;;;;;;;5105069;22;20041;-80
2021/01/24 12:56:20;;;;;;;8.85;3.10;;;;;;;;;;5079365;28;20084;-80
2021/01/24 12:58:46;;;;;;;15.02;6.47;;;;;;;;;;5082249;28;20445;-80
2021/01/24 13:01:12;;;;;;;12.55;5.47;;;;;;;;;;5079739;28;20387;-80
2021/01/24 13:03:39;;;;;;;8.88;3.50;;;;;;;;;;5086321;28;20035;-81
2021/01/24 13:06:05;;;;;;;11.73;4.55;;;;;;;;;;5083134;28;20035;-82
2021/01/24 13:08:31;;;;;;;14.60;6.20;;;;;;;;;;5083605;28;20024;-82
2021/01/24 13:10:56;;;;;;;14.38;5.03;;;;;;;;;;5083271;28;20020;-81
2021/01/24 13:13:22;;;;;;;9.52;4.78;;;;;;;;;;5079504;28;20111;-81
2021/01/24 13:15:48;;;;;;;9.95;3.92;;;;;;;;;;5081752;28;20026;-80
2021/01/24 13:18:13;;;;;;;6.93;4.13;;;;;;;;;;5084861;28;20073;-80
2021/01/24 13:20:39;;;;;;;7.03;3.38;;;;;;;;;;5082251;28;20026;-80
2021/01/24 13:23:05;;;;;;;8.65;3.20;;;;;;;;;;5082450;28;20026;-80
2021/01/24 13:25:30;;;;;;;4.30;2.65;;;;;;;;;;5080146;28;20135;-80
2021/01/24 13:27:56;;;;;;;8.32;3.53;;;;;;;;;;5087015;28;20573;-80
2021/01/24 13:30:22;;;;;;;5.35;2.40;;;;;;;;;;5081753;28;20017;-80
2021/01/24 13:32:47;;;;;;;5.63;2.40;;;;;;;;;;5086998;28;20028;-80
2021/01/24 13:35:13;;;;;;;5.50;2.65;;;;;;;;;;5088545;28;20088;-80
2021/01/24 13:39:58;;;;;;;8.10;3.20;;;;;;;;;;5097822;27;20753;-81
2021/01/24 13:42:23;;;;;;;4.97;2.75;;;;;;;;;;5107416;28;20038;-82
2021/01/24 13:44:49;;;;;;;5.15;2.65;;;;;;;;;;5093479;28;20027;-83
2021/01/24 13:47:15;;;;;;;6.72;2.42;;;;;;;;;;5084777;28;20070;-80
2021/01/24 13:49:41;;;;;;;4.18;2.22;;;;;;;;;;5084851;28;20484;-80
2021/01/24 13:52:07;;;;;;;5.93;2.25;;;;;;;;;;5079810;28;20054;-82
2021/01/24 13:54:32;;;;;;;5.55;2.25;;;;;;;;;;5084574;28;20016;-82
2021/01/24 13:56:58;;;;;;;3.70;2.15;;;;;;;;;;5101450;28;20031;-81
2021/01/24 13:59:26;;;;;;;5.80;3.05;;;;;;;;;;5115997;28;20019;-83
2021/01/24 14:01:52;;;;;;;5.97;3.28;;;;;;;;;;5111248;28;20020;-81
2021/01/24 14:04:18;;;;;;;4.18;2.70;;;;;;;;;;5105041;28;20024;-82
2021/01/24 14:06:44;;;;;;;7.72;2.53;;;;;;;;;;5092338;28;20112;-82
2021/01/24 14:09:09;;;;;;;4.18;2.15;;;;;;;;;;5088662;28;20016;-83
2021/01/24 14:11:35;;;;;;;7.63;2.47;;;;;;;;;;5104434;28;20036;-82
2021/01/24 14:14:01;;;;;;;4.43;2.10;;;;;;;;;;5103040;28;20098;-82
2021/01/24 14:16:26;;;;;;;4.90;1.95;;;;;;;;;;5108090;28;20034;-83
2021/01/24 14:18:53;;;;;;;3.88;2.58;;;;;;;;;;5110911;28;20008;-83
2021/01/24 14:21:19;;;;;;;5.78;2.53;;;;;;;;;;5093956;28;20025;-83
2021/01/24 14:23:44;;;;;;;4.20;2.10;;;;;;;;;;5097823;28;20013;-82
2021/01/24 14:26:10;;;;;;;5.97;2.40;;;;;;;;;;5090404;28;20024;-82
2021/01/24 14:28:36;;;;;;;5.40;2.72;;;;;;;;;;5091185;28;20055;-82
2021/01/24 14:31:02;;;;;;;4.45;2.17;;;;;;;;;;5089317;28;20029;-83
2021/01/24 14:33:28;;;;;;;4.82;2.13;;;;;;;;;;5088661;28;20024;-83
2021/01/24 14:35:53;;;;;;;3.50;2.08;;;;;;;;;;5093306;28;20034;-82
2021/01/24 14:38:19;;;;;;;7.18;3.80;;;;;;;;;;5089661;28;20029;-83
2021/01/24 14:40:45;;;;;;;7.45;5.22;;;;;;;;;;5106901;28;20487;-83
2021/01/24 14:43:10;;;;;;;5.32;2.25;;;;;;;;;;5107779;28;20030;-83
2021/01/24 14:45:36;;;;;;;3.88;1.70;;;;;;;;;;5114474;28;20020;-83
2021/01/24 14:48:03;;;;;;;6.57;3.22;;;;;;;;;;5088139;28;20027;-83
2021/01/24 14:50:29;;;;;;;4.85;2.63;;;;;;;;;;5096375;28;20021;-83
2021/01/24 14:52:55;;;;;;;6.80;3.47;;;;;;;;;;5082348;28;20031;-83
2021/01/24 14:55:20;;;;;;;7.22;2.97;;;;;;;;;;5085364;28;20081;-83
2021/01/24 14:57:46;;;;;;;7.60;2.08;;;;;;;;;;5084041;28;20027;-82
2021/01/24 15:00:12;;;;;;;4.60;2.17;;;;;;;;;;5085018;28;20099;-83
2021/01/24 15:02:38;;;;;;;3.78;2.05;;;;;;;;;;5082124;28;20056;-83
2021/01/24 15:05:03;;;;;;;6.95;3.92;;;;;;;;;;5083161;28;20090;-83
2021/01/24 15:07:29;;;;;;;4.55;2.42;;;;;;;;;;5079673;28;20561;-83
2021/01/24 15:09:55;;;;;;;3.83;2.40;;;;;;;;;;5080997;28;20034;-83
2021/01/24 15:12:21;;;;;;;6.00;3.13;;;;;;;;;;5085906;28;20184;-83
2021/01/24 15:14:50;;;;;;;12.55;7.65;;;;;;;;;;5097013;28;20024;-83
2021/01/24 15:17:16;;;;;;;27.75;15.25;;;;;;;;;;5082908;28;20131;-83
2021/01/24 15:19:42;;;;;;;25.15;13.50;;;;;;;;;;5078135;28;20104;-83
2021/01/24 15:22:08;;;;;;;17.42;7.93;;;;;;;;;;5081884;28;20033;-82
2021/01/24 15:24:33;;;;;;;36.85;16.38;;;;;;;;;;5077310;28;20024;-83
2021/01/24 15:26:59;;;;;;;33.40;15.45;;;;;;;;;;5069442;28;20413;-84
2021/01/24 15:29:25;;;;;;;15.40;8.60;;;;;;;;;;5076952;28;20043;-83
2021/01/24 15:31:50;;;;;;;11.48;5.85;;;;;;;;;;5079754;28;20039;-83
2021/01/24 15:34:16;;;;;;;7.75;2.60;;;;;;;;;;5073763;28;20024;-83
2021/01/24 15:36:42;;;;;;;6.45;2.97;;;;;;;;;;5083685;28;20389;-83
2021/01/24 15:39:08;;;;;;;8.43;3.35;;;;;;;;;;5070751;28;20060;-83
2021/01/24 15:41:34;;;;;;;7.47;4.22;;;;;;;;;;5071140;28;20115;-83
2021/01/24 15:44:03;;;;;;;8.00;4.47;;;;;;;;;;5085711;28;20460;-83
2021/01/24 15:46:31;;;;;;;4.70;2.78;;;;;;;;;;5087669;28;20078;-82
2021/01/24 15:48:57;;;;;;;5.63;3.30;;;;;;;;;;5080807;28;20024;-82
2021/01/24 15:51:22;;;;;;;10.18;4.10;;;;;;;;;;5087303;28;20062;-82
2021/01/24 15:53:48;;;;;;;6.32;2.42;;;;;;;;;;5078587;28;20055;-83
2021/01/24 15:56:14;;;;;;;4.90;2.17;;;;;;;;;;5079851;28;20523;-82
2021/01/24 15:58:39;;;;;;;6.20;3.40;;;;;;;;;;5086433;28;20091;-82
2021/01/24 16:01:05;;;;;;;5.88;2.90;;;;;;;;;;5090819;28;20028;-82
2021/01/24 16:03:31;;;;;;;7.32;2.60;;;;;;;;;;5083922;28;20024;-82
2021/01/24 16:05:56;;;;;;;10.05;3.95;;;;;;;;;;5074047;28;20111;-82
2021/01/24 16:08:22;;;;;;;6.55;3.30;;;;;;;;;;5075260;28;20095;-83
2021/01/24 16:10:48;;;;;;;7.35;3.58;;;;;;;;;;5077096;28;20040;-84
2021/01/24 16:13:14;;;;;;;11.65;5.63;;;;;;;;;;5069913;28;20066;-83
2021/01/24 16:15:40;;;;;;;12.50;6.82;;;;;;;;;;5069428;28;20051;-84
2021/01/24 16:18:06;;;;;;;11.82;5.78;;;;;;;;;;5073276;28;20023;-83
2021/01/24 16:20:32;;;;;;;9.80;5.25;;;;;;;;;;5076980;28;20028;-83
2021/01/24 16:22:58;;;;;;;8.38;4.90;;;;;;;;;;5063665;28;20883;-83
2021/01/24 16:25:24;;;;;;;8.82;4.55;;;;;;;;;;5075582;28;20016;-84
2021/01/24 16:27:49;;;;;;;5.10;2.63;;;;;;;;;;5071403;28;20021;-82
2021/01/24 16:30:15;;;;;;;9.45;4.28;;;;;;;;;;5067747;28;20369;-83
2021/01/24 16:37:17;;;;;;;9.48;4.95;;;;;;;;;;5104417;27;20412;-83
2021/01/24 16:39:43;;;;;;;7.05;3.42;;;;;;;;;;5085264;28;20033;-82
2021/01/24 16:42:08;;;;;;;11.68;3.75;;;;;;;;;;5094006;28;20111;-82
2021/01/24 16:44:34;;;;;;;6.78;2.92;;;;;;;;;;5088314;28;20028;-82
2021/01/24 16:47:00;;;;;;;4.70;2.03;;;;;;;;;;5084321;28;20024;-82
2021/01/24 16:49:26;;;;;;;3.13;1.40;;;;;;;;;;5089987;28;20113;-82
2021/01/24 16:51:51;;;;;;;3.33;1.60;;;;;;;;;;5090962;28;20099;-83
2021/01/24 16:54:17;;;;;;;8.65;1.27;;;;;;;;;;5097519;28;20130;-82
2021/01/24 16:56:43;;;;;;;4.93;2.17;;;;;;;;;;5087158;28;20020;-81
2021/01/24 16:59:08;;;;;;;6.13;2.63;;;;;;;;;;5082812;28;20524;-82
2021/01/24 17:01:34;;;;;;;3.40;1.95;;;;;;;;;;5084158;28;20460;-82
2021/01/24 17:04:00;;;;;;;5.82;2.80;;;;;;;;;;5080029;28;20363;-82
2021/01/24 17:06:27;;;;;;;4.32;2.10;;;;;;;;;;5082583;28;20139;-80
2021/01/24 17:08:53;;;;;;;7.18;1.80;;;;;;;;;;5085358;28;20169;-82
2021/01/24 17:11:18;;;;;;;3.70;1.95;;;;;;;;;;5080858;28;20536;-82
2021/01/24 17:13:44;;;;;;;3.83;1.60;;;;;;;;;;5084046;28;20028;-82
2021/01/24 17:16:11;;;;;;;3.65;1.40;;;;;;;;;;5083383;28;20024;-82
2021/01/24 17:18:36;;;;;;;5.53;2.00;;;;;;;;;;5083311;28;20044;-81
2021/01/24 17:21:02;;;;;;;4.57;2.47;;;;;;;;;;5082378;28;20020;-82
2021/01/24 17:23:28;;;;;;;5.05;2.00;;;;;;;;;;5073383;28;20111;-82
2021/01/24 17:25:53;;;;;;;4.13;1.75;;;;;;;;;;5083623;28;20095;-81
2021/01/24 17:28:19;;;;;;;3.15;1.27;;;;;;;;;;5088400;28;20103;-82
2021/01/24 17:30:45;;;;;;;2.97;1.45;;;;;;;;;;5079404;28;20020;-82
2021/01/24 17:33:11;;;;;;;3.03;1.50;;;;;;;;;;5079914;28;20036;-82
2021/01/24 17:35:37;;;;;;;4.45;2.15;;;;;;;;;;5090839;28;20028;-81
2021/01/24 17:38:06;;;;;;;9.75;4.00;;;;;;;;;;5081624;28;20100;-82
2021/01/24 17:42:50;;;;;;;3.97;2.10;;;;;;;;;;5119908;27;20407;-82
2021/01/24 17:45:16;;;;;;;3.88;2.30;;;;;;;;;;5089982;28;20023;-81
2021/01/24 17:47:42;;;;;;;3.47;1.63;;;;;;;;;;5088055;28;20508;-82
2021/01/24 17:50:08;;;;;;;5.88;1.92;;;;;;;;;;5079794;28;20126;-82
2021/01/24 17:52:35;;;;;;;7.28;3.00;;;;;;;;;;5081217;28;20038;-82
2021/01/24 17:55:01;;;;;;;7.43;3.00;;;;;;;;;;5079476;28;20020;-82
2021/01/24 17:57:27;;;;;;;4.22;2.20;;;;;;;;;;5078711;28;20103;-81
2021/01/24 17:59:52;;;;;;;5.38;2.20;;;;;;;;;;5091827;28;20020;-80
2021/01/24 18:02:18;;;;;;;4.85;2.28;;;;;;;;;;5088473;28;20016;-82
2021/01/24 18:04:44;;;;;;;4.45;2.55;;;;;;;;;;5090253;28;20681;-82
2021/01/24 18:07:09;;;;;;;8.63;5.57;;;;;;;;;;5088520;28;20026;-81
2021/01/24 18:09:35;;;;;;;8.00;4.70;;;;;;;;;;5102396;28;20026;-82
2021/01/24 18:12:01;;;;;;;4.10;2.42;;;;;;;;;;5090317;28;20046;-81
2021/01/24 18:14:27;;;;;;;6.10;1.80;;;;;;;;;;5077182;28;20028;-82
2021/01/24 18:16:52;;;;;;;5.57;1.75;;;;;;;;;;5092113;28;20473;-82
2021/01/24 18:19:18;;;;;;;3.88;2.00;;;;;;;;;;5084094;28;20523;-82
2021/01/24 18:21:44;;;;;;;4.45;1.65;;;;;;;;;;5083230;28;20028;-83
2021/01/24 18:24:09;;;;;;;4.82;1.80;;;;;;;;;;5096862;28;20038;-81
2021/01/24 18:26:35;;;;;;;5.45;1.80;;;;;;;;;;5071586;28;20388;-83
2021/01/24 18:29:01;;;;;;;5.32;2.92;;;;;;;;;;5062871;28;20463;-82
2021/01/24 18:31:26;;;;;;;4.85;1.90;;;;;;;;;;5087837;28;20506;-82
2021/01/24 18:33:52;;;;;;;4.57;1.98;;;;;;;;;;5063132;28;19919;-81
2021/01/24 18:36:18;;;;;;;5.68;1.63;;;;;;;;;;5069771;28;20122;-84
2021/01/24 18:38:44;;;;;;;5.85;2.58;;;;;;;;;;5069612;28;20044;-83
2021/01/24 18:41:09;;;;;;;3.35;1.80;;;;;;;;;;5070973;28;20017;-83
2021/01/24 18:43:35;;;;;;;4.20;1.90;;;;;;;;;;5084134;28;20380;-83
2021/01/24 18:46:06;;;;;;;4.38;1.77;;;;;;;;;;5084669;28;20024;-82
2021/01/24 18:48:32;;;;;;;4.70;1.63;;;;;;;;;;5066148;28;20032;-82
2021/01/24 18:50:58;;;;;;;5.97;3.17;;;;;;;;;;5063428;28;20519;-83
2021/01/24 18:53:23;;;;;;;5.60;2.75;;;;;;;;;;5055719;28;20024;-83
2021/01/24 18:55:49;;;;;;;3.85;1.80;;;;;;;;;;5067585;28;20495;-83
2021/01/24 18:58:14;;;;;;;5.18;2.20;;;;;;;;;;5066676;28;20024;-82
2021/01/24 19:00:40;;;;;;;4.20;1.85;;;;;;;;;;5069920;28;20120;-82
2021/01/24 19:03:06;;;;;;;3.40;1.50;;;;;;;;;;5051834;28;20036;-83
2021/01/24 19:05:32;;;;;;;4.47;2.05;;;;;;;;;;5068134;28;20389;-83
2021/01/24 19:07:58;;;;;;;4.10;1.60;;;;;;;;;;5052183;28;20012;-83
2021/01/24 19:10:24;;;;;;;4.70;2.08;;;;;;;;;;5055897;28;20111;-83
2021/01/24 19:12:49;;;;;;;7.43;3.28;;;;;;;;;;5064400;28;20024;-83
2021/01/24 19:15:15;;;;;;;14.57;5.35;;;;;;;;;;5066308;28;20031;-82
2021/01/24 19:17:41;;;;;;;6.60;3.40;;;;;;;;;;5072716;28;20435;-82
2021/01/24 19:20:07;;;;;;;5.45;2.97;;;;;;;;;;5073597;28;20082;-83
2021/01/24 19:22:36;;;;;;;3.42;1.80;;;;;;;;;;5054186;28;20016;-83
2021/01/24 19:25:02;;;;;;;3.38;1.40;;;;;;;;;;5075672;28;20043;-83
2021/01/24 19:29:45;;;;;;;3.75;1.65;;;;;;;;;;5087554;27;20443;-82
2021/01/24 19:32:11;;;;;;;3.17;1.45;;;;;;;;;;5084937;28;20032;-82
2021/01/24 19:34:37;;;;;;;5.38;2.20;;;;;;;;;;5088316;28;20373;-82
2021/01/24 19:37:03;;;;;;;7.53;2.92;;;;;;;;;;5089525;28;20021;-82
2021/01/24 19:39:29;;;;;;;12.20;4.38;;;;;;;;;;5084009;28;20032;-81
2021/01/24 19:41:58;;;;;;;9.68;3.55;;;;;;;;;;5087177;28;20556;-81
2021/01/24 19:44:27;;;;;;;4.93;3.03;;;;;;;;;;5076026;28;20534;-82
2021/01/24 19:46:53;;;;;;;6.45;3.13;;;;;;;;;;5083711;28;20044;-81
2021/01/24 19:49:19;;;;;;;4.22;2.30;;;;;;;;;;5081764;28;20100;-81
2021/01/24 19:51:45;;;;;;;5.82;1.92;;;;;;;;;;5102115;28;20020;-82
2021/01/24 19:54:10;;;;;;;5.45;1.52;;;;;;;;;;5092800;28;20468;-82
2021/01/24 19:56:36;;;;;;;3.40;1.80;;;;;;;;;;5095438;28;20020;-82
2021/01/24 19:59:02;;;;;;;3.97;2.10;;;;;;;;;;5087249;28;20016;-81
2021/01/24 20:01:27;;;;;;;3.42;1.42;;;;;;;;;;5083566;28;20074;-82
2021/01/24 20:03:53;;;;;;;3.40;1.52;;;;;;;;;;5102378;28;20426;-81
2021/01/24 20:06:19;;;;;;;3.35;1.85;;;;;;;;;;5091162;28;20031;-81
2021/01/24 20:08:45;;;;;;;9.20;2.47;;;;;;;;;;5107430;28;20016;-81
2021/01/24 20:11:10;;;;;;;7.20;3.13;;;;;;;;;;5095862;28;20091;-81
2021/01/24 20:13:37;;;;;;;5.88;2.47;;;;;;;;;;5088645;28;20051;-81
2021/01/24 20:16:03;;;;;;;5.63;2.10;;;;;;;;;;5095559;28;20025;-82
2021/01/24 20:18:29;;;;;;;3.90;1.70;;;;;;;;;;5093496;28;20090;-82
2021/01/24 20:20:54;;;;;;;8.35;2.60;;;;;;;;;;5091662;28;20555;-81
2021/01/24 20:23:20;;;;;;;7.95;2.63;;;;;;;;;;5090032;28;20028;-81
2021/01/24 20:25:46;;;;;;;6.95;3.13;;;;;;;;;;5088995;28;20416;-81
2021/01/24 20:28:11;;;;;;;5.30;2.58;;;;;;;;;;5090860;28;20047;-82
2021/01/24 20:30:37;;;;;;;5.20;2.55;;;;;;;;;;5088955;28;20095;-81
2021/01/24 20:33:04;;;;;;;7.57;3.97;;;;;;;;;;5096075;28;20019;-81
2021/01/24 20:35:30;;;;;;;6.05;2.58;;;;;;;;;;5086501;28;20050;-81
2021/01/24 20:37:56;;;;;;;5.05;2.85;;;;;;;;;;5087954;28;20032;-81
2021/01/24 20:40:23;;;;;;;4.93;2.90;;;;;;;;;;5079730;28;20543;-81
2021/01/24 20:42:49;;;;;;;5.68;3.08;;;;;;;;;;5079558;28;20640;-81
2021/01/24 20:45:15;;;;;;;6.45;3.08;;;;;;;;;;5081308;28;20064;-81
2021/01/24 20:47:40;;;;;;;5.60;3.05;;;;;;;;;;5077481;28;20036;-82
2021/01/24 20:50:07;;;;;;;7.68;3.47;;;;;;;;;;5076272;28;20032;-82
2021/01/24 20:52:35;;;;;;;7.82;3.65;;;;;;;;;;5074803;28;20040;-82
2021/01/24 20:55:01;;;;;;;6.55;3.50;;;;;;;;;;5070177;28;20472;-81
2021/01/24 20:57:27;;;;;;;7.35;3.35;;;;;;;;;;5075558;28;20023;-81
2021/01/24 20:59:52;;;;;;;7.40;3.63;;;;;;;;;;5081492;28;20035;-81
2021/01/24 21:02:19;;;;;;;10.23;4.25;;;;;;;;;;5078656;28;20097;-82
2021/01/24 21:04:45;;;;;;;5.68;3.10;;;;;;;;;;5071754;28;20435;-81
2021/01/24 21:07:10;;;;;;;10.27;4.13;;;;;;;;;;5067817;28;20024;-82
2021/01/24 21:09:37;;;;;;;5.63;3.13;;;;;;;;;;5076703;28;20024;-81
2021/01/24 21:14:21;;;;;;;12.82;4.28;;;;;;;;;;5113071;27;20760;-82
2021/01/24 21:16:47;;;;;;;14.07;6.32;;;;;;;;;;5100427;28;20024;-82
2021/01/24 21:19:13;;;;;;;11.57;6.10;;;;;;;;;;5093719;28;20036;-82
2021/01/24 21:21:39;;;;;;;10.43;6.03;;;;;;;;;;5097355;28;20028;-82
2021/01/24 21:24:05;;;;;;;12.98;6.28;;;;;;;;;;5095648;28;20028;-83
2021/01/24 21:28:49;;;;;;;9.00;4.85;;;;;;;;;;5073780;28;20358;-83
2021/01/24 21:31:14;;;;;;;14.75;7.75;;;;;;;;;;5078828;28;20574;-82
2021/01/24 21:33:40;;;;;;;13.00;6.20;;;;;;;;;;5072753;28;20642;-83
2021/01/24 21:36:06;;;;;;;11.57;6.88;;;;;;;;;;5080241;28;20091;-82
2021/01/24 21:38:33;;;;;;;15.43;7.68;;;;;;;;;;5071392;28;20028;-82
2021/01/24 21:40:59;;;;;;;18.27;8.07;;;;;;;;;;5083203;28;20020;-82
2021/01/24 21:43:25;;;;;;;20.17;10.20;;;;;;;;;;5069932;28;20017;-82
2021/01/24 21:45:50;;;;;;;16.00;8.73;;;;;;;;;;5067693;28;20452;-82
2021/01/24 21:48:16;;;;;;;19.95;10.35;;;;;;;;;;5077211;28;20017;-82
2021/01/24 21:50:42;;;;;;;19.05;9.73;;;;;;;;;;5066172;28;20056;-82
2021/01/24 21:53:07;;;;;;;15.32;8.77;;;;;;;;;;5058836;28;20467;-82
2021/01/24 21:57:52;;;;;;;16.60;7.30;;;;;;;;;;5110084;27;20394;-82
2021/01/24 22:00:18;;;;;;;13.57;5.68;;;;;;;;;;5096300;28;20024;-83
2021/01/24 22:02:44;;;;;;;13.82;6.05;;;;;;;;;;5092980;28;20032;-83
2021/01/24 22:05:10;;;;;;;16.95;7.88;;;;;;;;;;5093203;28;20088;-83
2021/01/24 22:07:35;;;;;;;12.50;6.57;;;;;;;;;;5093303;28;20111;-83
2021/01/24 22:10:01;;;;;;;8.40;4.13;;;;;;;;;;5094282;28;20566;-83
2021/01/24 22:12:27;;;;;;;9.30;5.10;;;;;;;;;;5087961;28;20028;-82
2021/01/24 22:14:53;;;;;;;8.75;5.32;;;;;;;;;;5100155;28;20028;-83
2021/01/24 22:17:18;;;;;;;5.95;3.85;;;;;;;;;;5101361;28;20022;-83
2021/01/24 22:19:44;;;;;;;11.52;6.18;;;;;;;;;;5101343;28;20103;-83
2021/01/24 22:22:09;;;;;;;8.23;4.80;;;;;;;;;;5107058;28;20075;-82
2021/01/24 22:24:35;;;;;;;7.97;3.25;;;;;;;;;;5105568;28;20043;-83
2021/01/24 22:27:01;;;;;;;6.45;4.00;;;;;;;;;;5111609;28;20114;-83
2021/01/24 22:29:26;;;;;;;7.22;4.00;;;;;;;;;;5107043;28;20024;-83
2021/01/24 22:31:52;;;;;;;11.38;3.13;;;;;;;;;;5108392;28;20042;-81
2021/01/24 22:36:37;;;;;;;7.70;3.00;;;;;;;;;;5121940;27;20377;-82
2021/01/24 22:39:03;;;;;;;5.82;3.67;;;;;;;;;;5112943;28;20032;-82
2021/01/24 22:41:29;;;;;;;8.02;3.47;;;;;;;;;;5120257;28;20059;-82
2021/01/24 22:43:55;;;;;;;6.53;3.08;;;;;;;;;;5106681;28;20035;-81
2021/01/24 22:46:20;;;;;;;5.28;2.63;;;;;;;;;;5107828;27;20380;-82
2021/01/24 22:48:46;;;;;;;7.05;4.05;;;;;;;;;;5117667;28;20017;-82
